createdAt,value
2019-05-30T00:01:32.408Z,9.98
2019-05-30T00:04:03.268Z,9.97
2019-05-30T00:06:35.589Z,9.99
2019-05-30T00:09:18.495Z,9.93
2019-05-30T00:11:54.709Z,9.94
2019-05-30T00:14:25.417Z,9.92
2019-05-30T00:16:56.771Z,9.88
2019-05-30T00:19:26.974Z,9.87
2019-05-30T00:21:58.682Z,9.84
2019-05-30T00:24:32.081Z,9.83
2019-05-30T00:27:02.591Z,9.80
2019-05-30T00:29:33.260Z,9.74
2019-05-30T00:32:04.349Z,9.70
2019-05-30T00:34:39.965Z,9.69
2019-05-30T00:37:15.106Z,9.68
2019-05-30T00:39:49.063Z,9.61
2019-05-30T00:42:19.297Z,9.60
2019-05-30T00:44:49.460Z,9.61
2019-05-30T00:47:27.122Z,9.63
2019-05-30T00:50:00.693Z,9.61
2019-05-30T00:52:31.281Z,9.63
2019-05-30T00:55:04.865Z,9.60
2019-05-30T00:57:35.276Z,9.57
2019-05-30T01:00:07.128Z,9.57
2019-05-30T01:02:37.816Z,9.57
2019-05-30T01:05:08.370Z,9.53
2019-05-30T01:07:38.570Z,9.51
2019-05-30T01:10:10.333Z,9.47
2019-05-30T01:12:40.434Z,9.48
2019-05-30T01:15:11.264Z,9.45
2019-05-30T01:17:41.544Z,9.40
2019-05-30T01:20:14.012Z,9.40
2019-05-30T01:22:44.535Z,9.39
2019-05-30T01:25:14.945Z,9.42
2019-05-30T01:27:45.203Z,9.39
2019-05-30T01:30:17.446Z,9.37
2019-05-30T01:32:47.690Z,9.32
2019-05-30T01:35:24.479Z,9.29
2019-05-30T01:37:54.991Z,9.28
2019-05-30T01:40:25.155Z,9.28
2019-05-30T01:42:55.151Z,9.25
2019-05-30T01:45:25.347Z,9.23
2019-05-30T01:47:55.450Z,9.24
2019-05-30T01:50:25.841Z,9.19
2019-05-30T01:52:56.172Z,9.20
2019-05-30T01:55:28.804Z,9.14
2019-05-30T01:58:01.401Z,9.13
2019-05-30T02:00:41.650Z,9.12
2019-05-30T02:03:16.674Z,9.08
2019-05-30T02:05:50.899Z,9.10
2019-05-30T02:08:21.350Z,9.09
2019-05-30T02:10:51.444Z,9.06
2019-05-30T02:13:21.569Z,9.08
2019-05-30T02:15:51.934Z,9.07
2019-05-30T02:18:22.136Z,9.05
2019-05-30T02:20:52.328Z,9.00
2019-05-30T02:23:22.345Z,8.97
2019-05-30T02:25:52.461Z,8.98
2019-05-30T02:28:22.672Z,8.97
2019-05-30T02:30:52.853Z,8.97
2019-05-30T02:33:22.934Z,8.91
2019-05-30T02:35:52.941Z,8.92
2019-05-30T02:38:22.934Z,8.86
2019-05-30T02:40:53.117Z,8.81
2019-05-30T02:43:23.102Z,8.81
2019-05-30T02:45:53.390Z,8.84
2019-05-30T02:48:23.416Z,8.84
2019-05-30T02:50:53.489Z,8.82
2019-05-30T02:53:23.691Z,8.82
2019-05-30T02:55:53.978Z,8.81
2019-05-30T02:58:24.130Z,8.85
2019-05-30T03:00:56.038Z,8.83
2019-05-30T03:03:26.208Z,8.80
2019-05-30T03:05:57.036Z,8.78
2019-05-30T03:08:27.558Z,8.77
2019-05-30T03:10:57.807Z,8.78
2019-05-30T03:13:28.194Z,8.89
2019-05-30T03:15:58.678Z,8.90
2019-05-30T03:18:29.135Z,8.88
2019-05-30T03:20:59.770Z,8.93
2019-05-30T03:23:32.753Z,8.93
2019-05-30T03:26:04.891Z,8.94
2019-05-30T03:28:35.708Z,8.93
2019-05-30T03:31:14.679Z,8.95
2019-05-30T03:33:42.436Z,9.01
2019-05-30T03:36:23.878Z,9.01
2019-05-30T03:38:43.829Z,9.07
2019-05-30T03:41:14.278Z,9.12
2019-05-30T03:43:44.533Z,9.23
2019-05-30T03:46:21.429Z,9.25
2019-05-30T03:48:54.358Z,9.36
2019-05-30T03:51:26.827Z,9.39
2019-05-30T03:53:56.999Z,9.43
2019-05-30T03:56:37.153Z,9.48
2019-05-30T03:59:26.618Z,9.52
2019-05-30T04:02:18.975Z,9.58
2019-05-30T04:04:55.906Z,9.69
2019-05-30T04:07:27.945Z,9.80
2019-05-30T04:10:00.487Z,9.91
2019-05-30T04:12:49.957Z,10.00
2019-05-30T04:15:32.903Z,10.07
2019-05-30T04:18:02.726Z,10.19
2019-05-30T04:20:32.787Z,10.32
2019-05-30T04:23:02.579Z,10.41
2019-05-30T04:25:32.436Z,10.49
2019-05-30T04:28:03.217Z,10.55
2019-05-30T04:30:33.030Z,10.66
2019-05-30T04:33:16.798Z,10.79
2019-05-30T04:35:34.360Z,10.86
2019-05-30T04:38:04.195Z,10.96
2019-05-30T04:40:34.048Z,11.05
2019-05-30T04:43:03.940Z,11.11
2019-05-30T04:45:33.774Z,11.21
2019-05-30T04:48:03.767Z,11.29
2019-05-30T04:50:33.595Z,11.44
2019-05-30T04:53:03.469Z,11.51
2019-05-30T04:55:33.300Z,11.66
2019-05-30T04:58:03.224Z,11.75
2019-05-30T05:00:33.078Z,11.91
2019-05-30T05:03:03.453Z,12.02
2019-05-30T05:05:33.361Z,12.00
2019-05-30T05:08:03.177Z,12.13
2019-05-30T05:10:33.381Z,12.26
2019-05-30T05:13:03.161Z,12.35
2019-05-30T05:15:33.031Z,12.43
2019-05-30T05:18:02.913Z,12.46
2019-05-30T05:20:36.061Z,12.57
2019-05-30T05:23:04.348Z,12.66
2019-05-30T05:25:34.312Z,12.84
2019-05-30T05:28:04.227Z,12.95
2019-05-30T05:30:34.080Z,13.06
2019-05-30T05:33:03.992Z,13.15
2019-05-30T05:35:33.915Z,13.28
2019-05-30T05:38:03.736Z,13.33
2019-05-30T05:40:33.654Z,13.42
2019-05-30T05:43:03.681Z,13.56
2019-05-30T05:45:33.543Z,13.65
2019-05-30T05:48:03.495Z,13.74
2019-05-30T05:50:33.342Z,13.76
2019-05-30T05:53:03.359Z,13.68
2019-05-30T05:55:33.257Z,13.79
2019-05-30T05:58:04.351Z,13.88
2019-05-30T06:00:34.213Z,13.79
2019-05-30T06:03:04.154Z,13.95
2019-05-30T06:05:34.113Z,14.15
2019-05-30T06:08:03.976Z,14.38
2019-05-30T06:10:33.855Z,14.52
2019-05-30T06:13:03.695Z,14.52
2019-05-30T06:15:33.579Z,14.62
2019-05-30T06:18:03.494Z,14.61
2019-05-30T06:20:33.446Z,14.71
2019-05-30T06:23:03.321Z,14.71
2019-05-30T06:25:33.255Z,14.87
2019-05-30T06:28:03.256Z,14.88
2019-05-30T06:30:33.428Z,14.96
2019-05-30T06:33:03.388Z,14.89
2019-05-30T06:35:36.330Z,14.93
2019-05-30T06:38:06.267Z,15.09
2019-05-30T06:40:37.357Z,15.06
2019-05-30T06:43:07.350Z,15.18
2019-05-30T06:45:37.398Z,15.36
2019-05-30T06:48:07.619Z,15.42
2019-05-30T06:50:37.575Z,15.52
2019-05-30T06:53:07.663Z,15.45
2019-05-30T06:55:37.665Z,15.57
2019-05-30T06:58:07.867Z,15.65
2019-05-30T07:00:38.143Z,15.68
2019-05-30T07:03:10.137Z,15.50
2019-05-30T07:05:40.749Z,15.76
2019-05-30T07:08:10.741Z,15.86
2019-05-30T07:10:40.918Z,16.03
2019-05-30T07:13:11.062Z,16.11
2019-05-30T07:15:41.138Z,16.27
2019-05-30T07:18:11.103Z,16.39
2019-05-30T07:20:41.188Z,16.43
2019-05-30T07:23:15.180Z,16.55
2019-05-30T07:25:45.038Z,16.53
2019-05-30T07:28:15.099Z,16.69
2019-05-30T07:30:45.267Z,16.67
2019-05-30T07:33:16.386Z,16.76
2019-05-30T07:35:46.866Z,16.83
2019-05-30T07:38:16.878Z,16.73
2019-05-30T07:40:46.997Z,16.79
2019-05-30T07:43:18.415Z,17.08
2019-05-30T07:45:57.702Z,17.14
2019-05-30T07:48:20.248Z,17.23
2019-05-30T07:50:50.269Z,17.22
2019-05-30T07:53:20.486Z,17.18
2019-05-30T07:55:56.764Z,17.27
2019-05-30T07:58:29.074Z,17.33
2019-05-30T08:00:59.340Z,17.50
2019-05-30T08:03:31.150Z,17.61
2019-05-30T08:06:01.108Z,17.65
2019-05-30T08:08:31.849Z,17.72
2019-05-30T08:11:09.259Z,17.74
2019-05-30T08:13:35.265Z,17.83
2019-05-30T08:16:05.308Z,17.91
2019-05-30T08:18:35.829Z,17.92
2019-05-30T08:21:06.127Z,17.85
2019-05-30T08:23:36.424Z,17.94
2019-05-30T08:26:06.822Z,18.03
2019-05-30T08:28:38.983Z,18.11
2019-05-30T08:31:09.599Z,18.22
2019-05-30T08:33:39.798Z,18.31
2019-05-30T08:36:15.766Z,18.44
2019-05-30T08:38:48.101Z,18.39
2019-05-30T08:41:17.392Z,18.48
2019-05-30T08:43:47.306Z,18.54
2019-05-30T08:46:17.142Z,18.60
2019-05-30T08:48:47.064Z,18.63
2019-05-30T08:51:16.866Z,18.89
2019-05-30T08:53:46.703Z,18.98
2019-05-30T08:56:16.678Z,19.00
2019-05-30T08:58:46.536Z,18.96
2019-05-30T09:01:16.509Z,18.97
2019-05-30T09:03:46.382Z,18.98
2019-05-30T09:06:16.239Z,18.87
2019-05-30T09:08:46.393Z,18.97
2019-05-30T09:11:16.243Z,19.09
2019-05-30T09:13:46.762Z,19.26
2019-05-30T09:16:16.803Z,19.23
2019-05-30T09:18:47.476Z,19.18
2019-05-30T09:21:17.677Z,19.23
2019-05-30T09:23:48.040Z,19.34
2019-05-30T09:26:18.247Z,19.27
2019-05-30T09:28:48.407Z,19.46
2019-05-30T09:31:18.326Z,19.58
2019-05-30T09:33:51.028Z,19.54
2019-05-30T09:36:20.984Z,19.65
2019-05-30T09:38:50.832Z,19.85
2019-05-30T09:41:20.682Z,19.78
2019-05-30T09:43:50.503Z,19.56
2019-05-30T09:46:22.016Z,19.76
2019-05-30T09:48:52.591Z,20.00
2019-05-30T09:51:23.492Z,20.17
2019-05-30T09:53:54.096Z,20.28
2019-05-30T09:56:24.510Z,20.45
2019-05-30T09:59:04.564Z,20.49
2019-05-30T10:01:36.903Z,20.77
2019-05-30T10:04:09.498Z,20.90
2019-05-30T10:06:42.097Z,21.05
2019-05-30T10:09:16.695Z,20.98
2019-05-30T10:11:51.329Z,20.79
2019-05-30T10:14:21.898Z,20.82
2019-05-30T10:16:57.771Z,20.95
2019-05-30T10:19:31.279Z,21.16
2019-05-30T10:22:01.859Z,21.38
2019-05-30T10:24:32.623Z,21.45
2019-05-30T10:27:02.895Z,21.62
2019-05-30T10:29:33.414Z,21.73
2019-05-30T10:32:03.739Z,21.82
2019-05-30T10:34:33.955Z,21.75
2019-05-30T10:37:09.321Z,21.74
2019-05-30T10:39:41.103Z,21.96
2019-05-30T10:42:11.542Z,22.08
2019-05-30T10:44:42.533Z,22.16
2019-05-30T10:47:13.022Z,22.38
2019-05-30T10:49:45.303Z,22.49
2019-05-30T10:52:15.955Z,22.18
2019-05-30T10:54:47.836Z,22.43
2019-05-30T10:57:19.380Z,22.64
2019-05-30T10:59:50.858Z,22.54
2019-05-30T11:02:21.534Z,21.87
2019-05-30T11:04:53.025Z,22.08
2019-05-30T11:07:52.823Z,22.23
2019-05-30T11:10:15.282Z,22.36
2019-05-30T11:12:46.632Z,22.55
2019-05-30T11:15:18.544Z,22.65
2019-05-30T11:17:50.487Z,22.79
2019-05-30T11:20:22.723Z,22.35
2019-05-30T11:22:54.285Z,22.84
2019-05-30T11:25:24.698Z,23.03
2019-05-30T11:27:55.095Z,23.10
2019-05-30T11:30:26.364Z,22.87
2019-05-30T11:32:57.305Z,22.86
2019-05-30T11:35:28.068Z,23.08
2019-05-30T11:38:01.716Z,23.27
2019-05-30T11:40:33.399Z,23.15
2019-05-30T11:43:04.535Z,23.27
2019-05-30T11:45:35.613Z,23.63
2019-05-30T11:48:06.235Z,23.96
2019-05-30T11:50:38.077Z,24.07
2019-05-30T11:53:08.542Z,24.10
2019-05-30T11:56:07.211Z,23.59
2019-05-30T11:58:37.727Z,23.84
2019-05-30T12:01:08.343Z,23.97
2019-05-30T12:03:42.730Z,23.55
2019-05-30T12:06:13.185Z,23.70
2019-05-30T12:08:44.052Z,23.60
2019-05-30T12:11:14.279Z,23.46
2019-05-30T12:13:44.977Z,23.90
2019-05-30T12:16:16.144Z,23.74
2019-05-30T12:18:47.075Z,23.74
2019-05-30T12:21:19.693Z,23.83
2019-05-30T12:26:39.856Z,23.53
2019-05-30T12:29:10.403Z,24.21
2019-05-30T12:31:43.528Z,24.18
2019-05-30T12:34:18.089Z,24.09
2019-05-30T12:36:56.488Z,23.79
2019-05-30T12:39:31.268Z,24.05
2019-05-30T12:42:05.770Z,24.28
2019-05-30T12:44:40.194Z,24.60
2019-05-30T12:47:10.272Z,24.85
2019-05-30T12:49:40.690Z,24.81
2019-05-30T12:52:10.775Z,24.97
2019-05-30T12:54:41.605Z,24.94
2019-05-30T12:57:11.888Z,25.07
2019-05-30T12:59:42.105Z,24.99
2019-05-30T13:02:12.371Z,24.67
2019-05-30T13:04:45.349Z,24.35
2019-05-30T13:07:15.953Z,24.23
2019-05-30T13:09:46.597Z,25.23
2019-05-30T13:12:16.767Z,25.62
2019-05-30T13:14:46.971Z,25.91
2019-05-30T13:17:16.986Z,26.82
2019-05-30T13:19:46.998Z,27.49
2019-05-30T13:22:17.160Z,27.76
2019-05-30T13:24:47.208Z,27.86
2019-05-30T13:27:17.686Z,28.25
2019-05-30T13:29:47.754Z,28.53
2019-05-30T13:32:17.972Z,28.99
2019-05-30T13:34:48.421Z,29.15
2019-05-30T13:37:18.576Z,29.56
2019-05-30T13:39:48.626Z,28.88
2019-05-30T13:42:18.921Z,27.78
2019-05-30T13:44:49.241Z,27.13
2019-05-30T13:47:19.500Z,27.34
2019-05-30T13:49:49.723Z,27.82
2019-05-30T13:52:19.785Z,27.55
2019-05-30T13:54:50.129Z,28.70
2019-05-30T13:57:20.126Z,29.71
2019-05-30T13:59:54.729Z,30.39
2019-05-30T14:02:24.867Z,29.71
2019-05-30T14:04:55.151Z,27.92
2019-05-30T14:07:25.433Z,28.24
2019-05-30T14:09:55.536Z,28.70
2019-05-30T14:12:25.497Z,30.01
2019-05-30T14:14:55.626Z,31.35
2019-05-30T14:17:25.762Z,31.38
2019-05-30T14:19:55.787Z,32.75
2019-05-30T14:22:25.904Z,33.05
2019-05-30T14:24:56.030Z,31.60
2019-05-30T14:27:26.137Z,29.60
2019-05-30T14:29:56.223Z,30.01
2019-05-30T14:32:26.215Z,29.90
2019-05-30T14:34:56.238Z,28.39
2019-05-30T14:37:26.494Z,27.42
2019-05-30T14:39:56.517Z,26.48
2019-05-30T14:42:26.753Z,27.29
2019-05-30T14:44:56.897Z,28.84
2019-05-30T14:47:26.939Z,28.74
2019-05-30T14:49:57.160Z,28.02
2019-05-30T14:52:27.379Z,28.64
2019-05-30T14:54:57.533Z,31.35
2019-05-30T14:57:27.754Z,32.23
2019-05-30T14:59:58.071Z,29.70
2019-05-30T15:02:29.353Z,28.52
2019-05-30T15:04:59.631Z,28.52
2019-05-30T15:07:29.761Z,28.44
2019-05-30T15:09:59.985Z,27.62
2019-05-30T15:12:30.104Z,26.78
2019-05-30T15:15:00.517Z,25.80
2019-05-30T15:17:39.785Z,26.32
2019-05-30T15:20:12.226Z,27.05
2019-05-30T15:22:43.741Z,27.33
2019-05-30T15:25:16.458Z,27.73
2019-05-30T15:27:46.672Z,27.83
2019-05-30T15:30:17.177Z,28.26
2019-05-30T15:32:47.294Z,27.25
2019-05-30T15:35:19.219Z,26.98
2019-05-30T15:37:49.657Z,27.32
2019-05-30T15:40:21.808Z,27.48
2019-05-30T15:42:53.177Z,26.88
2019-05-30T15:45:24.068Z,25.56
2019-05-30T15:47:54.103Z,25.18
2019-05-30T15:50:25.331Z,25.21
2019-05-30T15:52:56.570Z,24.92
2019-05-30T15:55:27.021Z,24.58
2019-05-30T15:57:57.270Z,24.46
2019-05-30T16:00:28.935Z,24.22
2019-05-30T16:02:59.533Z,24.41
2019-05-30T16:05:29.649Z,24.30
2019-05-30T16:08:00.321Z,24.54
2019-05-30T16:10:30.510Z,24.35
2019-05-30T16:13:02.093Z,24.53
2019-05-30T16:15:32.352Z,24.34
2019-05-30T16:18:02.671Z,24.05
2019-05-30T16:20:33.341Z,23.92
2019-05-30T16:23:03.534Z,23.75
2019-05-30T16:25:33.887Z,23.78
2019-05-30T16:28:04.850Z,23.97
2019-05-30T16:30:35.492Z,24.23
2019-05-30T16:33:05.731Z,23.97
2019-05-30T16:35:35.970Z,24.62
2019-05-30T16:38:06.040Z,24.13
2019-05-30T16:40:37.225Z,24.25
2019-05-30T16:43:07.226Z,24.45
2019-05-30T16:45:37.247Z,24.41
2019-05-30T16:48:07.355Z,24.18
2019-05-30T16:50:37.507Z,24.29
2019-05-30T16:53:07.597Z,24.29
2019-05-30T16:55:37.790Z,24.19
2019-05-30T16:58:08.101Z,23.84
2019-05-30T17:00:38.630Z,23.77
2019-05-30T17:03:09.087Z,23.62
2019-05-30T17:05:39.340Z,24.30
2019-05-30T17:08:09.530Z,26.67
2019-05-30T17:10:42.246Z,26.60
2019-05-30T17:13:12.541Z,26.78
2019-05-30T17:15:43.543Z,27.36
2019-05-30T17:18:13.649Z,25.90
2019-05-30T17:20:43.767Z,24.81
2019-05-30T17:23:14.314Z,23.94
2019-05-30T17:25:46.675Z,23.62
2019-05-30T17:28:18.032Z,23.02
2019-05-30T17:30:48.470Z,22.14
2019-05-30T17:33:21.529Z,21.60
2019-05-30T17:35:53.685Z,21.24
2019-05-30T17:38:24.596Z,21.22
2019-05-30T17:40:54.773Z,21.15
2019-05-30T17:43:25.095Z,21.18
2019-05-30T17:45:55.355Z,21.16
2019-05-30T17:48:25.874Z,21.30
2019-05-30T17:50:56.376Z,21.19
2019-05-30T17:53:27.889Z,21.06
2019-05-30T17:55:59.506Z,20.99
2019-05-30T17:58:30.242Z,20.97
2019-05-30T18:01:01.220Z,20.73
2019-05-30T18:03:32.452Z,20.67
2019-05-30T18:06:02.803Z,20.57
2019-05-30T18:08:41.060Z,20.46
2019-05-30T18:11:11.682Z,20.43
2019-05-30T18:13:41.892Z,20.40
2019-05-30T18:16:12.166Z,20.34
2019-05-30T18:18:42.366Z,20.30
2019-05-30T18:21:12.634Z,20.28
2019-05-30T18:23:44.885Z,20.20
2019-05-30T18:26:15.254Z,20.12
2019-05-30T18:28:45.783Z,20.00
2019-05-30T18:31:16.216Z,19.95
2019-05-30T18:33:46.308Z,19.88
2019-05-30T18:36:16.386Z,19.78
2019-05-30T18:38:46.563Z,19.78
2019-05-30T18:41:19.705Z,19.81
2019-05-30T18:43:49.974Z,19.74
2019-05-30T18:46:20.399Z,19.82
2019-05-30T18:48:50.609Z,19.67
2019-05-30T18:51:20.942Z,19.63
2019-05-30T18:53:50.977Z,19.59
2019-05-30T18:56:21.086Z,19.63
2019-05-30T18:58:51.377Z,19.57
2019-05-30T19:01:21.562Z,19.52
2019-05-30T19:03:54.104Z,19.52
2019-05-30T19:06:25.543Z,19.61
2019-05-30T19:08:55.956Z,19.62
2019-05-30T19:11:29.601Z,19.48
2019-05-30T19:14:01.079Z,19.48
2019-05-30T19:16:32.330Z,19.44
2019-05-30T19:19:02.757Z,19.41
2019-05-30T19:21:36.219Z,19.43
2019-05-30T19:24:06.551Z,19.45
2019-05-30T19:26:36.885Z,19.46
2019-05-30T19:29:07.117Z,19.46
2019-05-30T19:31:37.340Z,19.38
2019-05-30T19:34:07.517Z,19.41
2019-05-30T19:36:40.233Z,19.39
2019-05-30T19:39:11.007Z,19.31
2019-05-30T19:41:55.585Z,19.34
2019-05-30T19:44:13.343Z,19.31
2019-05-30T19:46:43.453Z,19.31
2019-05-30T19:49:13.777Z,19.32
2019-05-30T19:51:44.067Z,19.28
2019-05-30T19:54:14.223Z,19.29
2019-05-30T19:56:49.067Z,19.25
2019-05-30T19:59:19.381Z,19.21
2019-05-30T20:01:49.661Z,19.13
2019-05-30T20:04:19.681Z,19.13
2019-05-30T20:06:49.975Z,19.16
2019-05-30T20:09:20.082Z,19.09
2019-05-30T20:12:02.601Z,19.05
2019-05-30T20:14:22.157Z,18.99
2019-05-30T20:16:52.449Z,18.95
2019-05-30T20:19:23.114Z,18.88
2019-05-30T20:21:53.953Z,18.83
2019-05-30T20:24:24.541Z,18.82
2019-05-30T20:26:55.342Z,18.79
2019-05-30T20:29:25.627Z,18.72
2019-05-30T20:31:57.150Z,18.70
2019-05-30T20:34:27.689Z,18.68
2019-05-30T20:36:59.146Z,18.60
2019-05-30T20:39:29.443Z,18.53
2019-05-30T20:41:59.677Z,18.53
2019-05-30T20:44:30.052Z,18.38
2019-05-30T20:47:03.715Z,18.29
2019-05-30T20:49:35.135Z,18.31
2019-05-30T20:52:05.412Z,18.32
2019-05-30T20:54:35.662Z,18.38
2019-05-30T20:57:08.093Z,18.39
2019-05-30T20:59:38.515Z,18.44
2019-05-30T21:02:09.906Z,18.37
2019-05-30T21:04:43.212Z,18.33
2019-05-30T21:07:13.425Z,18.25
2019-05-30T21:09:44.276Z,18.12
2019-05-30T21:12:17.600Z,18.11
2019-05-30T21:14:50.587Z,18.12
2019-05-30T21:17:23.449Z,18.12
2019-05-30T21:19:53.530Z,18.07
2019-05-30T21:22:23.757Z,18.03
2019-05-30T21:24:54.320Z,18.00
2019-05-30T21:27:24.846Z,17.96
2019-05-30T21:29:55.378Z,17.92
2019-05-30T21:32:25.534Z,17.90
2019-05-30T21:34:55.884Z,17.99
2019-05-30T21:37:26.159Z,17.94
2019-05-30T21:39:56.529Z,17.96
2019-05-30T21:42:26.802Z,18.06
2019-05-30T21:44:57.101Z,18.02
2019-05-30T21:47:36.868Z,18.03
2019-05-30T21:50:11.888Z,18.03
2019-05-30T21:52:48.097Z,18.03
2019-05-30T21:55:18.888Z,18.05
2019-05-30T21:57:56.713Z,17.95
2019-05-30T22:01:33.508Z,17.92
2019-05-30T22:04:33.333Z,17.94
2019-05-30T22:07:01.212Z,17.96
2019-05-30T22:09:35.566Z,17.88
2019-05-30T22:12:06.871Z,17.81
2019-05-30T22:14:41.625Z,17.77
2019-05-30T22:17:18.481Z,17.82
2019-05-30T22:19:55.929Z,17.81
2019-05-30T22:22:26.993Z,17.92
2019-05-30T22:24:59.412Z,17.86
2019-05-30T22:27:32.836Z,17.90
2019-05-30T22:30:04.470Z,17.89
2019-05-30T22:32:35.713Z,17.92
2019-05-30T22:35:08.821Z,17.92
2019-05-30T22:37:41.132Z,17.97
2019-05-30T22:40:14.815Z,17.91
2019-05-30T22:42:56.485Z,17.88
2019-05-30T22:45:30.281Z,17.90
2019-05-30T22:48:03.206Z,17.85
2019-05-30T22:50:34.243Z,17.82
2019-05-30T22:53:06.499Z,17.93
2019-05-30T22:55:37.378Z,17.84
2019-05-30T22:58:09.363Z,17.85
2019-05-30T23:03:16.948Z,17.85
2019-05-30T23:05:49.825Z,17.92
2019-05-30T23:08:21.771Z,17.86
2019-05-30T23:11:06.003Z,17.86
2019-05-30T23:13:40.455Z,17.75
2019-05-30T23:16:07.952Z,17.80
2019-05-30T23:18:38.537Z,17.83
2019-05-30T23:21:10.298Z,17.79
2019-05-30T23:23:40.733Z,17.79
2019-05-30T23:26:13.364Z,17.77
2019-05-30T23:28:43.786Z,17.75
2019-05-30T23:31:15.955Z,17.78
2019-05-30T23:36:38.952Z,17.75
2019-05-30T23:39:10.076Z,17.68
2019-05-30T23:41:42.069Z,17.67
2019-05-30T23:44:12.412Z,17.63
2019-05-30T23:46:43.212Z,17.52
2019-05-30T23:49:22.585Z,17.53
2019-05-30T23:51:54.562Z,17.48
2019-05-30T23:54:25.463Z,17.43
2019-05-30T23:56:57.024Z,17.33
2019-05-30T23:59:29.792Z,17.29
